Conroe, Texas
Current Conditions -  °F | °C
As of 9:53 PM on Friday 28 Nov 2014 (Local Time) from KCXO Reporting Station
Clear Clear  
Wind Chill: 54°   Ceiling: Unl
Heat Index: 54°   Visibility: 9mi
Dew Point: 52°   Wind: 5mph
Humidity: 93%   Direction: 160°SSE
Pressure: 30.15"   Gusts: NA
Location:  30.31°N, 95.45°W
Report Text: KCXO 290353Z 16004KT 9SM CLR 12/11 A3015 RMK AO2 SLP209 T01220111
Loading
Personal Weather Stations






























Interactive Weather Map New forecast layout! Learn more

10-Day Weather Forecast

Advertisements
Track Severe Weather on mobile